Time;durP1;ratioP1;P1;durP2;ratioP2;P2;SDS_P1;SDS_P2;PMS_P1;PMS_P2;Temp;Humidity;BMP_temperature;BMP_pressure;BME280_temperature;BME280_humidity;BME280_pressure;Samples;Min_cycle;Max_cycle;Signal;HPM_P1;HPM_P2
2021/10/21 00:01:53;;;;;;;2.53;1.70;;;12.90;99.90;;;;;;5140736;27;20213;-81
2021/10/21 00:04:19;;;;;;;2.37;1.53;;;;;;;;;;5145014;27;20199;-81
2021/10/21 00:06:45;;;;;;;1.90;1.60;;;13.10;99.90;;;;;;5144661;27;20174;-81
2021/10/21 00:09:11;;;;;;;2.10;1.70;;;;;;;;;;5145372;27;20182;-82
2021/10/21 00:11:37;;;;;;;2.47;1.80;;;;;;;;;;5146390;27;20175;-81
2021/10/21 00:14:03;;;;;;;2.07;1.30;;;12.90;99.90;;;;;;5145161;27;20210;-81
2021/10/21 00:16:29;;;;;;;2.00;1.80;;;12.90;99.90;;;;;;5146274;27;20175;-83
2021/10/21 00:18:55;;;;;;;4.77;2.23;;;12.90;99.90;;;;;;5146546;27;20201;-81
2021/10/21 00:21:21;;;;;;;3.50;1.77;;;12.80;99.90;;;;;;5156373;27;20191;-81
2021/10/21 00:23:47;;;;;;;5.57;1.67;;;;;;;;;;5156564;27;20217;-81
2021/10/21 00:26:13;;;;;;;3.00;2.00;;;12.70;99.90;;;;;;5157886;27;20220;-81
2021/10/21 00:28:39;;;;;;;3.40;1.43;;;12.70;99.90;;;;;;5146223;27;20178;-81
2021/10/21 00:31:05;;;;;;;1.97;1.77;;;12.60;99.90;;;;;;5146517;27;20182;-81
2021/10/21 00:33:31;;;;;;;2.47;1.77;;;12.60;99.90;;;;;;5145690;27;20257;-82
2021/10/21 00:35:57;;;;;;;1.93;1.70;;;12.60;99.90;;;;;;5144683;27;20209;-81
2021/10/21 00:38:23;;;;;;;1.80;1.50;;;12.40;99.90;;;;;;5145471;27;20183;-82
2021/10/21 00:40:50;;;;;;;3.30;1.77;;;12.20;99.90;;;;;;5144352;27;20194;-83
2021/10/21 00:43:17;;;;;;;2.93;1.97;;;12.20;99.90;;;;;;5145449;27;20660;-82
2021/10/21 00:45:43;;;;;;;3.53;1.80;;;12.10;99.90;;;;;;5144078;27;20527;-82
2021/10/21 00:48:09;;;;;;;2.20;1.90;;;;;;;;;;5144550;28;20179;-82
2021/10/21 00:50:35;;;;;;;2.17;1.97;;;11.90;99.90;;;;;;5142764;28;20215;-82
2021/10/21 00:53:02;;;;;;;2.77;1.87;;;12.00;99.90;;;;;;5144866;28;20175;-82
2021/10/21 00:55:28;;;;;;;2.30;1.90;;;;;;;;;;5143694;27;20629;-81
2021/10/21 00:57:55;;;;;;;3.13;2.10;;;12.00;99.90;;;;;;5144578;28;20186;-82
2021/10/21 01:00:21;;;;;;;1.80;1.53;;;12.10;99.90;;;;;;5143335;28;20226;-82
2021/10/21 01:02:47;;;;;;;4.93;1.70;;;;;;;;;;5144301;27;20231;-81
2021/10/21 01:05:13;;;;;;;2.37;1.83;;;12.20;99.90;;;;;;5145053;27;20175;-82
2021/10/21 01:07:39;;;;;;;2.83;1.70;;;12.10;99.90;;;;;;5143915;27;20181;-82
2021/10/21 01:10:10;;;;;;;3.80;1.90;;;12.10;99.90;;;;;;5143736;27;20194;-82
2021/10/21 01:12:36;;;;;;;2.37;1.43;;;12.00;99.90;;;;;;5146072;28;20539;-81
2021/10/21 01:15:14;;;;;;;3.80;1.97;;;12.10;99.90;;;;;;5147782;27;20622;-82
2021/10/21 01:17:40;;;;;;;3.30;1.80;;;12.10;99.90;;;;;;5146629;27;20569;-82
2021/10/21 01:20:06;;;;;;;2.10;1.63;;;12.20;99.90;;;;;;5144493;28;20223;-82
2021/10/21 01:22:32;;;;;;;2.63;1.53;;;12.30;99.90;;;;;;5144402;28;20233;-81
2021/10/21 01:24:57;;;;;;;1.70;1.60;;;12.30;99.90;;;;;;5144432;28;20170;-82
2021/10/21 01:27:23;;;;;;;1.87;1.47;;;;;;;;;;5147042;27;20179;-81
2021/10/21 01:29:49;;;;;;;2.10;1.60;;;12.70;99.90;;;;;;5146643;27;20258;-82
2021/10/21 01:32:23;;;;;;;2.00;1.70;;;12.70;99.90;;;;;;5151434;28;20655;-80
2021/10/21 01:34:48;;;;;;;1.80;1.40;;;12.90;99.90;;;;;;5144211;27;20201;-82
2021/10/21 01:37:14;;;;;;;2.17;1.63;;;12.80;99.90;;;;;;5147943;27;20183;-82
2021/10/21 01:39:40;;;;;;;2.47;1.73;;;12.80;99.90;;;;;;5147833;27;20223;-82
2021/10/21 01:42:06;;;;;;;2.10;1.90;;;12.80;99.90;;;;;;5146883;27;20175;-81
2021/10/21 01:44:32;;;;;;;1.67;1.43;;;12.70;99.90;;;;;;5147619;27;20240;-82
2021/10/21 01:46:57;;;;;;;2.50;1.80;;;12.80;99.90;;;;;;5149022;27;20178;-82
2021/10/21 01:49:24;;;;;;;4.73;1.70;;;;;;;;;;5147021;27;20231;-82
2021/10/21 01:51:50;;;;;;;1.63;1.50;;;12.70;99.90;;;;;;5148762;27;20174;-82
2021/10/21 01:54:16;;;;;;;3.40;1.40;;;12.70;99.90;;;;;;5148897;27;20166;-81
2021/10/21 01:56:42;;;;;;;1.67;1.47;;;12.60;99.90;;;;;;5148164;27;20205;-82
2021/10/21 01:59:08;;;;;;;3.83;1.73;;;;;;;;;;5149149;27;20238;-81
2021/10/21 02:01:34;;;;;;;2.13;1.40;;;;;;;;;;5156643;27;20191;-81
2021/10/21 02:04:01;;;;;;;2.33;1.80;;;12.30;99.90;;;;;;5155631;27;20198;-81
2021/10/21 02:06:27;;;;;;;4.90;2.27;;;12.40;99.90;;;;;;5156877;27;20167;-82
2021/10/21 02:08:53;;;;;;;2.07;1.50;;;;;;;;;;5148551;27;20601;-81
2021/10/21 02:11:19;;;;;;;5.63;1.80;;;12.50;99.90;;;;;;5146507;27;20205;-82
2021/10/21 02:13:45;;;;;;;3.93;1.50;;;;;;;;;;5147699;27;20178;-82
2021/10/21 02:16:10;;;;;;;1.83;1.57;;;12.60;99.90;;;;;;5147385;27;20203;-82
2021/10/21 02:18:36;;;;;;;2.30;1.80;;;;;;;;;;5148731;27;20266;-82
2021/10/21 02:21:03;;;;;;;2.80;1.90;;;12.50;99.90;;;;;;5148547;27;20194;-82
2021/10/21 02:23:28;;;;;;;1.73;1.60;;;12.30;99.90;;;;;;5158770;27;20228;-81
2021/10/21 02:25:54;;;;;;;2.40;1.80;;;;;;;;;;5159219;27;20243;-81
2021/10/21 02:28:20;;;;;;;2.07;1.57;;;12.00;99.90;;;;;;5156732;27;20177;-82
2021/10/21 02:30:46;;;;;;;2.13;1.73;;;12.00;99.90;;;;;;5147030;27;20182;-82
2021/10/21 02:33:13;;;;;;;1.83;1.47;;;;;;;;;;5146317;27;20191;-81
2021/10/21 02:35:41;;;;;;;2.00;1.33;;;12.20;99.90;;;;;;5145429;27;20255;-82
2021/10/21 02:38:06;;;;;;;3.37;1.50;;;12.30;99.90;;;;;;5146503;27;20175;-81
2021/10/21 02:40:32;;;;;;;1.90;1.50;;;;;;;;;;5147408;27;20194;-82
2021/10/21 02:42:58;;;;;;;1.87;1.53;;;12.20;99.90;;;;;;5142959;27;20213;-81
2021/10/21 02:45:24;;;;;;;1.80;1.53;;;12.10;99.90;;;;;;5143003;27;20179;-82
2021/10/21 02:47:50;;;;;;;2.33;1.40;;;;;;;;;;5143779;27;20197;-81
2021/10/21 02:50:16;;;;;;;1.73;1.33;;;;;;;;;;5142424;27;20220;-81
2021/10/21 02:52:42;;;;;;;2.00;1.60;;;;;;;;;;5141806;27;20206;-82
2021/10/21 02:55:08;;;;;;;2.70;1.70;;;12.40;99.90;;;;;;5137997;27;20203;-82
2021/10/21 02:57:34;;;;;;;2.03;1.83;;;12.70;99.90;;;;;;5138180;27;20194;-81
2021/10/21 03:00:00;;;;;;;1.70;1.47;;;;;;;;;;5143971;27;20191;-83
2021/10/21 03:02:26;;;;;;;2.07;1.53;;;12.70;99.90;;;;;;5148030;27;20229;-82
2021/10/21 03:04:52;;;;;;;2.30;1.83;;;12.40;99.90;;;;;;5145856;27;20234;-82
2021/10/21 03:07:18;;;;;;;2.93;1.90;;;;;;;;;;5147513;27;20697;-82
2021/10/21 03:09:44;;;;;;;5.00;2.00;;;;;;;;;;5146442;27;20206;-82
2021/10/21 03:12:09;;;;;;;2.60;1.77;;;12.50;99.90;;;;;;5146650;27;20179;-82
2021/10/21 03:14:35;;;;;;;2.30;2.00;;;;;;;;;;5146363;27;20225;-82
2021/10/21 03:17:02;;;;;;;2.80;2.10;;;12.70;99.90;;;;;;5146711;27;20179;-82
2021/10/21 03:19:28;;;;;;;3.40;2.30;;;12.80;99.90;;;;;;5146616;27;20203;-82
2021/10/21 03:21:54;;;;;;;3.73;2.20;;;12.80;99.90;;;;;;5145799;27;20186;-82
2021/10/21 03:24:20;;;;;;;2.70;2.27;;;13.00;99.90;;;;;;5146078;27;20191;-82
2021/10/21 03:26:47;;;;;;;2.83;2.33;;;;;;;;;;5146492;27;20191;-82
2021/10/21 03:29:13;;;;;;;2.60;2.23;;;13.20;99.90;;;;;;5144868;27;20210;-81
2021/10/21 03:31:39;;;;;;;3.47;2.60;;;;;;;;;;5144745;27;20177;-82
2021/10/21 03:34:05;;;;;;;2.63;2.33;;;;;;;;;;5145536;27;20191;-82
2021/10/21 03:36:30;;;;;;;4.47;2.67;;;13.10;99.90;;;;;;5146419;27;20186;-82
2021/10/21 03:38:56;;;;;;;4.30;2.80;;;;;;;;;;5145255;27;20183;-81
2021/10/21 03:41:22;;;;;;;3.87;2.50;;;13.00;99.90;;;;;;5145104;27;20209;-82
2021/10/21 03:43:48;;;;;;;3.37;2.70;;;13.10;99.90;;;;;;5146048;27;20199;-82
2021/10/21 03:46:14;;;;;;;3.30;2.70;;;;;;;;;;5144453;27;20220;-82
2021/10/21 03:48:39;;;;;;;3.63;2.83;;;13.30;99.90;;;;;;5145970;27;20651;-82
2021/10/21 03:51:05;;;;;;;3.97;2.67;;;13.40;99.90;;;;;;5145383;27;20199;-82
2021/10/21 03:53:31;;;;;;;5.43;3.60;;;;;;;;;;5146159;27;20174;-82
2021/10/21 03:55:57;;;;;;;5.23;3.13;;;13.30;99.90;;;;;;5149123;27;20170;-82
2021/10/21 03:58:23;;;;;;;6.60;3.73;;;;;;;;;;5149519;27;20173;-82
2021/10/21 04:00:48;;;;;;;4.20;3.67;;;13.40;99.90;;;;;;5145468;27;20296;-82
2021/10/21 04:03:14;;;;;;;5.10;3.83;;;;;;;;;;5144196;27;20200;-82
2021/10/21 04:05:40;;;;;;;5.07;4.17;;;13.20;99.90;;;;;;5145514;27;20167;-82
2021/10/21 04:08:07;;;;;;;6.53;5.03;;;;;;;;;;5145034;27;20204;-82
2021/10/21 04:10:32;;;;;;;8.90;4.70;;;13.10;99.90;;;;;;5145870;27;20201;-82
2021/10/21 04:12:58;;;;;;;6.37;4.73;;;13.00;99.90;;;;;;5146397;27;20175;-82
2021/10/21 04:15:27;;;;;;;6.60;4.63;;;;;;;;;;5145528;27;20277;-83
2021/10/21 04:17:53;;;;;;;6.37;4.97;;;12.70;99.90;;;;;;5147835;27;20217;-84
2021/10/21 04:20:20;;;;;;;6.80;5.43;;;12.40;99.90;;;;;;5148263;27;20266;-82
2021/10/21 04:22:46;;;;;;;7.93;6.20;;;12.10;99.90;;;;;;5148602;27;20243;-83
2021/10/21 04:25:12;;;;;;;7.23;5.50;;;;;;;;;;5155644;27;20225;-82
2021/10/21 04:27:37;;;;;;;7.47;5.57;;;12.40;99.90;;;;;;5155070;27;20167;-83
2021/10/21 04:30:07;;;;;;;7.00;5.97;;;12.30;99.90;;;;;;5146643;27;20201;-82
2021/10/21 04:32:33;;;;;;;7.57;5.77;;;12.20;99.90;;;;;;5156080;27;20260;-82
2021/10/21 04:34:58;;;;;;;6.87;5.70;;;12.20;99.90;;;;;;5155780;27;20195;-82
2021/10/21 04:37:25;;;;;;;5.83;4.87;;;12.20;99.90;;;;;;5156432;27;20194;-81
2021/10/21 04:39:51;;;;;;;7.80;5.53;;;12.30;99.90;;;;;;5156246;27;20179;-81
2021/10/21 04:42:17;;;;;;;8.20;5.70;;;12.40;99.90;;;;;;5155993;27;20195;-84
2021/10/21 04:44:43;;;;;;;7.00;5.57;;;12.50;99.90;;;;;;5143577;27;20207;-82
2021/10/21 04:47:09;;;;;;;9.93;5.20;;;12.50;99.90;;;;;;5142859;27;20167;-82
2021/10/21 04:49:36;;;;;;;5.87;4.70;;;12.50;99.90;;;;;;5144220;28;20222;-84
2021/10/21 04:52:03;;;;;;;6.30;4.37;;;;;;;;;;5144857;28;20163;-82
2021/10/21 04:54:28;;;;;;;4.60;3.37;;;12.70;99.90;;;;;;5143051;28;20246;-82
2021/10/21 04:56:54;;;;;;;3.87;3.33;;;;;;;;;;5143307;27;20186;-81
2021/10/21 04:59:20;;;;;;;2.80;2.30;;;13.00;99.90;;;;;;5144649;27;20238;-80
2021/10/21 05:01:46;;;;;;;3.77;2.53;;;13.10;99.90;;;;;;5142556;28;20183;-81
2021/10/21 05:04:11;;;;;;;3.40;2.73;;;13.30;99.90;;;;;;5142455;27;20209;-80
2021/10/21 05:06:38;;;;;;;2.73;2.40;;;;;;;;;;5143169;28;20261;-81
2021/10/21 05:09:03;;;;;;;3.23;2.93;;;13.60;99.90;;;;;;5143327;27;20587;-81
2021/10/21 05:11:29;;;;;;;4.00;3.10;;;;;;;;;;5148044;27;20190;-80
2021/10/21 05:13:55;;;;;;;4.03;3.63;;;13.70;99.90;;;;;;5148044;27;20254;-81
2021/10/21 05:16:20;;;;;;;7.37;2.97;;;13.70;99.90;;;;;;5146391;27;20206;-81
2021/10/21 05:18:46;;;;;;;4.57;3.40;;;13.60;99.90;;;;;;5147582;27;20637;-81
2021/10/21 05:21:12;;;;;;;3.67;3.20;;;;;;;;;;5146596;27;20193;-81
2021/10/21 05:23:38;;;;;;;3.10;2.70;;;13.10;99.90;;;;;;5145130;27;20672;-82
2021/10/21 05:26:04;;;;;;;3.23;2.70;;;;;;;;;;5147186;27;20265;-81
2021/10/21 05:28:30;;;;;;;4.10;2.40;;;12.60;99.90;;;;;;5145376;27;20231;-81
2021/10/21 05:30:55;;;;;;;6.77;2.70;;;12.20;99.90;;;;;;5146009;27;20193;-82
2021/10/21 05:33:25;;;;;;;2.70;2.13;;;12.10;99.90;;;;;;5143789;27;20202;-80
2021/10/21 05:35:51;;;;;;;1.70;1.60;;;12.00;99.90;;;;;;5144425;27;20179;-80
2021/10/21 05:38:16;;;;;;;3.57;2.40;;;12.00;99.90;;;;;;5143716;27;20183;-81
2021/10/21 05:40:42;;;;;;;4.67;1.70;;;11.90;99.90;;;;;;5145139;27;20203;-82
2021/10/21 05:43:08;;;;;;;2.20;1.83;;;11.90;99.90;;;;;;5145379;27;20202;-82
2021/10/21 05:45:34;;;;;;;3.03;1.93;;;11.80;99.90;;;;;;5144942;27;20257;-81
2021/10/21 05:48:00;;;;;;;2.80;1.90;;;;;;;;;;5141898;27;20208;-82
2021/10/21 05:50:25;;;;;;;2.33;1.73;;;11.70;99.90;;;;;;5141019;27;20241;-81
2021/10/21 05:52:51;;;;;;;1.53;1.37;;;;;;;;;;5139205;27;20211;-81
2021/10/21 05:55:17;;;;;;;2.00;1.07;;;11.60;99.90;;;;;;5138657;27;20183;-81
2021/10/21 05:57:43;;;;;;;1.10;0.90;;;;;;;;;;5137795;27;20185;-82
2021/10/21 06:00:10;;;;;;;1.47;0.90;;;11.40;99.90;;;;;;5142048;27;20218;-82
2021/10/21 06:02:36;;;;;;;2.23;1.00;;;11.30;99.90;;;;;;5145792;27;20280;-82
2021/10/21 06:05:03;;;;;;;3.13;0.93;;;11.00;99.90;;;;;;5145097;27;20175;-83
2021/10/21 06:07:29;;;;;;;1.47;0.77;;;11.00;99.90;;;;;;5146032;27;20535;-83
2021/10/21 06:09:57;;;;;;;1.53;0.80;;;10.70;99.90;;;;;;5145600;27;20190;-82
2021/10/21 06:12:23;;;;;;;3.03;0.63;;;10.60;99.90;;;;;;5146498;27;20175;-82
2021/10/21 06:14:49;;;;;;;3.53;0.80;;;10.50;99.90;;;;;;5146844;27;20189;-82
2021/10/21 06:17:15;;;;;;;1.43;1.00;;;;;;;;;;5152922;27;20187;-82
2021/10/21 06:19:41;;;;;;;2.77;0.70;;;10.20;99.90;;;;;;5156192;27;20190;-82
2021/10/21 06:22:09;;;;;;;3.67;0.90;;;10.30;99.90;;;;;;5150291;27;20275;-82
2021/10/21 06:24:36;;;;;;;1.20;0.80;;;10.10;99.90;;;;;;5154517;27;20209;-84
2021/10/21 06:27:02;;;;;;;2.07;0.70;;;9.90;99.90;;;;;;5155234;27;20171;-81
2021/10/21 06:29:27;;;;;;;1.77;0.90;;;10.20;99.90;;;;;;5148194;27;20179;-82
2021/10/21 06:31:54;;;;;;;3.03;0.90;;;;;;;;;;5145032;27;20171;-83
2021/10/21 06:34:20;;;;;;;5.13;1.20;;;10.00;99.90;;;;;;5142361;27;20190;-82
2021/10/21 06:36:46;;;;;;;3.87;1.23;;;10.00;99.90;;;;;;5142325;27;20182;-83
2021/10/21 06:39:12;;;;;;;2.77;1.03;;;10.00;99.90;;;;;;5142205;27;20173;-82
2021/10/21 06:41:38;;;;;;;1.00;0.90;;;10.00;99.90;;;;;;5141816;27;20191;-82
2021/10/21 06:44:05;;;;;;;3.77;1.30;;;10.00;99.90;;;;;;5141580;27;20274;-82
2021/10/21 06:46:31;;;;;;;3.13;1.30;;;10.00;99.90;;;;;;5143460;27;20173;-81
2021/10/21 06:48:58;;;;;;;6.37;1.63;;;10.10;99.90;;;;;;5143014;27;20252;-82
2021/10/21 06:51:24;;;;;;;3.73;1.60;;;10.10;99.90;;;;;;5142196;27;20268;-81
2021/10/21 06:53:50;;;;;;;1.73;1.30;;;10.10;99.90;;;;;;5143227;27;20175;-81
2021/10/21 06:56:16;;;;;;;2.73;1.40;;;10.20;99.90;;;;;;5142599;27;20178;-82
2021/10/21 06:58:41;;;;;;;1.90;1.20;;;10.20;99.90;;;;;;5141565;27;20181;-81
2021/10/21 07:01:07;;;;;;;2.13;1.47;;;10.30;99.90;;;;;;5143497;27;20197;-82
2021/10/21 07:03:32;;;;;;;4.03;1.50;;;10.30;99.90;;;;;;5143558;27;20206;-82
2021/10/21 07:05:58;;;;;;;3.40;1.00;;;10.40;99.90;;;;;;5144260;27;20176;-82
2021/10/21 07:08:26;;;;;;;1.77;1.13;;;10.50;99.90;;;;;;5141659;27;20182;-82
2021/10/21 07:10:52;;;;;;;4.27;1.83;;;10.50;99.90;;;;;;5142315;27;20279;-82
2021/10/21 07:13:18;;;;;;;1.73;1.20;;;10.50;99.90;;;;;;5143016;27;20182;-82
2021/10/21 07:15:44;;;;;;;2.03;1.80;;;10.50;99.90;;;;;;5142509;27;20179;-81
2021/10/21 07:18:09;;;;;;;2.53;1.50;;;10.50;99.90;;;;;;5142701;27;20261;-82
2021/10/21 07:20:36;;;;;;;3.67;1.40;;;10.50;99.90;;;;;;5141662;27;20202;-81
2021/10/21 07:23:01;;;;;;;2.20;1.60;;;10.50;99.90;;;;;;5142603;27;20221;-81
2021/10/21 07:25:28;;;;;;;1.27;1.13;;;10.50;99.90;;;;;;5142931;27;20636;-81
2021/10/21 07:27:56;;;;;;;3.57;1.30;;;10.50;99.90;;;;;;5141711;27;20644;-81
2021/10/21 07:30:22;;;;;;;1.37;0.90;;;10.50;99.90;;;;;;5142700;27;20183;-81
2021/10/21 07:32:48;;;;;;;1.67;1.10;;;10.50;99.90;;;;;;5141412;27;20309;-81
2021/10/21 07:35:13;;;;;;;1.87;1.00;;;10.50;99.90;;;;;;5141863;27;20182;-81
2021/10/21 07:37:40;;;;;;;2.43;1.27;;;10.50;99.90;;;;;;5142739;27;20227;-81
2021/10/21 07:40:07;;;;;;;4.23;1.20;;;10.50;99.90;;;;;;5143901;27;20190;-80
2021/10/21 07:42:34;;;;;;;2.07;1.30;;;10.50;99.90;;;;;;5143432;27;20179;-80
2021/10/21 07:45:00;;;;;;;2.63;1.40;;;10.50;99.90;;;;;;5141180;27;20174;-80
2021/10/21 07:47:26;;;;;;;4.23;1.10;;;10.50;99.90;;;;;;5142354;27;20227;-81
2021/10/21 07:49:52;;;;;;;3.67;1.37;;;10.60;99.90;;;;;;5142435;27;20201;-81
2021/10/21 07:52:18;;;;;;;3.37;1.17;;;10.70;99.90;;;;;;5142207;27;20178;-80
2021/10/21 07:54:45;;;;;;;2.70;1.30;;;10.80;99.90;;;;;;5144135;27;20201;-80
2021/10/21 07:57:13;;;;;;;2.43;1.10;;;10.90;99.90;;;;;;5141712;27;20265;-81
2021/10/21 07:59:39;;;;;;;8.33;1.37;;;11.00;99.90;;;;;;5142258;27;20196;-81
2021/10/21 08:02:05;;;;;;;3.73;1.27;;;11.00;99.90;;;;;;5142834;27;20224;-80
2021/10/21 08:04:32;;;;;;;3.20;1.10;;;11.00;99.90;;;;;;5141994;27;20210;-80
2021/10/21 08:06:59;;;;;;;2.87;1.20;;;11.20;99.90;;;;;;5143966;27;20178;-80
2021/10/21 08:09:25;;;;;;;6.37;0.80;;;11.20;99.90;;;;;;5143544;27;20196;-81
2021/10/21 08:11:53;;;;;;;3.87;1.10;;;11.20;99.90;;;;;;5145597;27;20174;-81
2021/10/21 08:14:19;;;;;;;3.77;0.93;;;11.30;99.90;;;;;;5143276;27;20174;-80
2021/10/21 08:16:46;;;;;;;7.07;1.03;;;11.90;99.90;;;;;;5143108;27;20269;-80
2021/10/21 08:19:13;;;;;;;4.63;1.00;;;12.70;99.90;;;;;;5145082;27;20177;-80
2021/10/21 08:21:39;;;;;;;5.70;0.90;;;12.90;99.90;;;;;;5144050;27;20538;-80
2021/10/21 08:24:08;;;;;;;4.50;1.23;;;12.60;99.90;;;;;;5143416;27;20245;-80
2021/10/21 08:26:37;;;;;;;2.40;0.93;;;12.20;99.90;;;;;;5144578;27;20703;-80
2021/10/21 08:29:03;;;;;;;2.13;0.90;;;11.90;99.90;;;;;;5142615;27;20175;-80
2021/10/21 08:31:29;;;;;;;3.10;0.80;;;12.20;99.90;;;;;;5142073;27;20194;-80
2021/10/21 08:33:54;;;;;;;3.43;1.07;;;12.50;99.90;;;;;;5142857;27;20190;-80
2021/10/21 08:36:22;;;;;;;6.30;1.00;;;13.00;99.90;;;;;;5143321;27;20266;-81
2021/10/21 08:38:51;;;;;;;3.37;1.10;;;13.30;99.90;;;;;;5143624;27;20621;-80
2021/10/21 08:41:18;;;;;;;2.43;1.07;;;13.80;99.90;;;;;;5143330;27;20264;-81
2021/10/21 08:43:45;;;;;;;2.83;1.37;;;14.10;99.90;;;;;;5145003;27;20266;-80
2021/10/21 08:46:15;;;;;;;2.17;1.03;;;14.30;99.90;;;;;;5145225;27;20236;-79
2021/10/21 08:48:44;;;;;;;3.37;1.10;;;14.30;99.90;;;;;;5138201;27;20564;-79
2021/10/21 08:51:10;;;;;;;7.80;2.07;;;14.30;99.90;;;;;;5137696;28;20190;-79
2021/10/21 08:53:36;;;;;;;5.53;1.10;;;14.40;99.90;;;;;;5137035;28;20185;-81
2021/10/21 08:56:02;;;;;;;4.87;1.50;;;14.60;99.90;;;;;;5136419;28;20178;-80
2021/10/21 08:58:28;;;;;;;3.07;1.00;;;14.50;99.90;;;;;;5136337;28;20228;-80
2021/10/21 09:00:59;;;;;;;4.20;1.10;;;14.20;99.90;;;;;;5136361;28;20548;-80
2021/10/21 09:08:57;;;;;;;3.27;1.40;;;14.40;99.90;;;;;;5142947;28;20183;-80
2021/10/21 09:11:23;;;;;;;2.87;1.00;;;14.70;99.90;;;;;;5143253;28;20245;-80
2021/10/21 09:14:09;;;;;;;3.87;1.10;;;14.50;99.90;;;;;;5141745;27;20175;-80
2021/10/21 09:16:35;;;;;;;4.80;1.43;;;14.30;99.90;;;;;;5142292;28;20201;-81
2021/10/21 09:19:09;;;;;;;6.30;1.13;;;14.20;99.90;;;;;;5141033;28;20668;-81
2021/10/21 09:21:40;;;;;;;2.73;1.10;;;14.70;99.90;;;;;;5142403;28;20281;-81
2021/10/21 09:24:25;;;;;;;4.63;1.30;;;15.00;99.90;;;;;;5140793;28;20606;-80
2021/10/21 09:27:13;;;;;;;2.93;1.00;;;15.00;99.90;;;;;;5142943;27;20179;-80
2021/10/21 09:29:48;;;;;;;3.57;1.33;;;15.10;99.90;;;;;;5142290;28;20336;-80
2021/10/21 09:32:29;;;;;;;3.53;1.03;;;15.30;99.90;;;;;;5141919;28;20274;-81
2021/10/21 09:35:04;;;;;;;2.70;1.00;;;15.80;99.90;;;;;;5142641;28;20166;-80
2021/10/21 09:37:41;;;;;;;2.80;1.13;;;15.80;99.90;;;;;;5142789;28;20164;-80
2021/10/21 09:40:10;;;;;;;2.33;1.23;;;15.70;99.90;;;;;;5140767;28;20201;-80
2021/10/21 09:42:38;;;;;;;2.00;0.90;;;15.50;99.90;;;;;;5140746;28;20263;-79
2021/10/21 09:45:14;;;;;;;2.93;1.00;;;15.60;99.90;;;;;;5142384;27;20170;-80
2021/10/21 09:47:44;;;;;;;5.60;1.13;;;15.50;99.90;;;;;;5141274;28;20231;-80
2021/10/21 09:50:23;;;;;;;4.93;1.27;;;15.60;99.90;;;;;;5143008;28;20187;-80
2021/10/21 09:53:04;;;;;;;8.27;1.50;;;16.00;99.90;;;;;;5141545;27;20178;-80
2021/10/21 09:55:30;;;;;;;4.50;1.40;;;15.70;99.90;;;;;;5141111;27;20185;-80
2021/10/21 09:58:00;;;;;;;1.57;1.13;;;15.90;99.90;;;;;;5146459;27;20202;-81
2021/10/21 10:00:30;;;;;;;3.07;1.23;;;16.20;99.90;;;;;;5146574;27;20248;-81
2021/10/21 10:03:20;;;;;;;3.33;1.17;;;16.20;99.90;;;;;;5145596;27;20202;-80
2021/10/21 10:05:52;;;;;;;5.43;1.27;;;15.70;99.90;;;;;;5134457;27;20183;-80
2021/10/21 10:08:19;;;;;;;2.33;1.03;;;16.00;99.90;;;;;;5144281;27;20174;-80
2021/10/21 10:10:48;;;;;;;1.47;1.00;;;15.70;99.90;;;;;;5146272;27;20198;-81
2021/10/21 10:13:16;;;;;;;4.20;0.90;;;15.60;99.90;;;;;;5145003;27;20265;-81
2021/10/21 10:15:44;;;;;;;4.33;1.00;;;15.20;99.90;;;;;;5146761;27;20199;-81
2021/10/21 10:18:18;;;;;;;4.67;1.20;;;15.40;99.90;;;;;;5144801;27;20178;-81
2021/10/21 10:21:01;;;;;;;1.87;0.70;;;15.80;99.90;;;;;;5145718;27;20206;-81
2021/10/21 10:23:28;;;;;;;2.60;1.30;;;15.10;99.90;;;;;;5132784;27;20293;-81
2021/10/21 10:25:54;;;;;;;2.47;0.73;;;14.70;99.90;;;;;;5137493;27;20182;-82
2021/10/21 10:28:20;;;;;;;2.57;1.07;;;14.50;99.90;;;;;;5127896;27;20175;-80
2021/10/21 10:30:56;;;;;;;5.57;1.00;;;14.50;99.90;;;;;;5132789;27;20199;-81
2021/10/21 10:33:43;;;;;;;2.67;0.90;;;14.30;99.90;;;;;;5129754;27;20547;-81
2021/10/21 10:36:24;;;;;;;2.83;1.13;;;14.80;99.90;;;;;;5137339;27;20538;-81
2021/10/21 10:38:50;;;;;;;2.10;0.90;;;15.10;99.90;;;;;;5138979;27;20176;-81
2021/10/21 10:41:42;;;;;;;1.97;1.10;;;15.70;99.20;;;;;;5135729;27;20282;-80
2021/10/21 10:44:11;;;;;;;3.10;1.30;;;16.10;99.40;;;;;;5133611;27;20195;-80
2021/10/21 10:46:53;;;;;;;3.27;1.00;;;16.50;99.10;;;;;;5143628;27;20175;-81
2021/10/21 10:49:37;;;;;;;3.63;2.13;;;16.90;96.50;;;;;;5149509;27;20244;-80
2021/10/21 10:52:09;;;;;;;4.70;1.00;;;16.80;98.00;;;;;;5139644;27;20260;-81
2021/10/21 10:54:43;;;;;;;5.30;1.00;;;17.00;97.80;;;;;;5127144;28;20701;-81
2021/10/21 10:57:10;;;;;;;2.80;1.03;;;17.30;95.50;;;;;;5128624;28;20171;-81
2021/10/21 10:59:36;;;;;;;2.40;1.07;;;17.30;94.90;;;;;;5126994;28;20753;-81
2021/10/21 11:02:30;;;;;;;3.27;0.97;;;17.10;92.00;;;;;;5124853;28;20232;-82
2021/10/21 11:05:00;;;;;;;2.43;0.93;;;16.80;93.10;;;;;;5123108;28;20164;-81
2021/10/21 11:07:47;;;;;;;4.73;1.20;;;16.60;91.60;;;;;;5125808;28;20178;-80
2021/10/21 11:10:17;;;;;;;4.80;1.17;;;16.80;91.40;;;;;;5124910;28;20219;-82
2021/10/21 11:12:43;;;;;;;4.07;0.80;;;17.10;90.40;;;;;;5122263;28;20203;-81
2021/10/21 11:15:29;;;;;;;8.07;1.10;;;17.10;90.70;;;;;;5123206;28;20221;-80
2021/10/21 11:18:03;;;;;;;1.50;0.77;;;17.00;89.40;;;;;;5111327;28;20274;-81
2021/10/21 11:20:31;;;;;;;1.73;0.70;;;17.10;90.90;;;;;;5123419;28;20698;-81
2021/10/21 11:23:28;;;;;;;1.70;0.80;;;17.40;89.00;;;;;;5122190;28;20207;-82
2021/10/21 11:26:12;;;;;;;3.00;1.00;;;17.60;88.40;;;;;;5123678;28;20163;-82
2021/10/21 11:28:38;;;;;;;2.40;0.97;;;17.50;88.60;;;;;;5123740;28;20160;-82
2021/10/21 11:31:09;;;;;;;3.43;1.30;;;18.20;90.80;;;;;;5122200;28;20294;-81
2021/10/21 11:33:36;;;;;;;6.70;1.17;;;17.90;86.10;;;;;;5123212;27;20212;-85
2021/10/21 11:36:02;;;;;;;4.83;1.50;;;18.00;86.40;;;;;;5122437;28;20172;-83
2021/10/21 11:38:29;;;;;;;3.10;1.00;;;18.50;86.90;;;;;;5121800;28;20175;-82
2021/10/21 11:40:57;;;;;;;3.27;1.07;;;18.90;86.30;;;;;;5121833;28;20195;-82
2021/10/21 11:43:35;;;;;;;3.33;1.10;;;19.30;82.70;;;;;;5124961;28;20204;-85
2021/10/21 11:46:03;;;;;;;2.97;1.17;;;19.50;83.90;;;;;;5125205;28;20178;-85
2021/10/21 11:48:33;;;;;;;2.73;1.10;;;19.70;82.00;;;;;;5124460;28;20176;-86
2021/10/21 11:51:02;;;;;;;5.93;1.47;;;19.50;80.10;;;;;;5125200;28;20199;-85
2021/10/21 11:53:28;;;;;;;2.47;1.10;;;19.00;82.50;;;;;;5127070;28;20184;-85
2021/10/21 11:55:57;;;;;;;1.80;0.80;;;18.90;80.30;;;;;;5130111;28;20178;-85
2021/10/21 11:58:28;;;;;;;3.23;1.00;;;18.70;81.10;;;;;;5129627;28;20173;-84
2021/10/21 12:00:59;;;;;;;2.23;0.80;;;18.80;79.10;;;;;;5128499;28;20194;-84
2021/10/21 12:03:32;;;;;;;1.90;0.87;;;18.60;75.10;;;;;;5128937;28;20199;-85
2021/10/21 12:05:59;;;;;;;3.80;1.10;;;18.70;75.20;;;;;;5129267;28;20186;-85
2021/10/21 12:08:26;;;;;;;2.50;1.13;;;18.80;75.80;;;;;;5128834;28;20213;-85
2021/10/21 12:10:57;;;;;;;1.90;1.00;;;19.50;73.70;;;;;;5130847;28;20203;-86
2021/10/21 12:13:33;;;;;;;3.57;0.90;;;19.30;72.20;;;;;;5130984;28;20254;-86
2021/10/21 12:16:02;;;;;;;4.77;1.00;;;19.10;71.20;;;;;;5128832;28;20234;-87
2021/10/21 12:18:31;;;;;;;8.13;0.90;;;19.80;70.20;;;;;;5131955;28;20162;-83
2021/10/21 12:21:06;;;;;;;2.03;1.03;;;19.80;71.00;;;;;;5136419;28;20171;-82
2021/10/21 12:23:34;;;;;;;2.40;1.10;;;19.90;71.40;;;;;;5136955;28;20191;-84
2021/10/21 12:26:07;;;;;;;1.43;0.90;;;20.00;70.80;;;;;;5127332;28;20183;-84
2021/10/21 12:28:47;;;;;;;2.43;1.03;;;20.40;70.90;;;;;;5125919;28;20187;-84
2021/10/21 12:31:35;;;;;;;7.37;1.30;;;20.90;69.30;;;;;;5123619;28;20193;-84
2021/10/21 12:34:03;;;;;;;4.93;1.50;;;20.60;70.60;;;;;;5122923;28;20298;-83
2021/10/21 12:36:32;;;;;;;18.00;10.53;;;21.00;69.30;;;;;;5124541;28;20531;-83
2021/10/21 12:39:13;;;;;;;11.07;5.50;;;20.80;70.10;;;;;;5124161;28;20172;-84
2021/10/21 12:42:01;;;;;;;7.57;3.93;;;21.00;68.20;;;;;;5125569;28;20199;-83
2021/10/21 12:44:31;;;;;;;4.73;1.97;;;21.10;68.70;;;;;;5125315;28;20253;-83
2021/10/21 12:47:09;;;;;;;14.53;8.17;;;20.80;69.90;;;;;;5125088;28;20176;-83
2021/10/21 12:49:35;;;;;;;5.47;3.50;;;20.90;70.70;;;;;;5123397;28;20222;-82
2021/10/21 12:52:10;;;;;;;9.00;4.43;;;21.20;71.00;;;;;;5124406;28;20171;-82
2021/10/21 12:54:38;;;;;;;3.43;1.57;;;21.70;69.00;;;;;;5126543;28;20185;-83
2021/10/21 12:57:04;;;;;;;4.07;2.30;;;22.00;67.40;;;;;;5131682;28;20181;-83
2021/10/21 12:59:33;;;;;;;2.43;1.40;;;21.30;66.10;;;;;;5130994;28;20180;-83
2021/10/21 13:02:10;;;;;;;5.23;1.00;;;21.00;67.60;;;;;;5130824;28;20179;-83
2021/10/21 13:04:50;;;;;;;3.07;1.00;;;21.20;71.30;;;;;;5131254;28;20541;-83
2021/10/21 13:07:24;;;;;;;1.67;0.80;;;21.40;70.30;;;;;;5123824;28;20266;-83
2021/10/21 13:09:51;;;;;;;2.60;1.03;;;21.10;68.70;;;;;;5125650;28;20192;-83
2021/10/21 13:12:18;;;;;;;3.13;1.07;;;21.30;69.90;;;;;;5124022;28;20211;-83
2021/10/21 13:14:46;;;;;;;2.00;1.10;;;22.10;67.50;;;;;;5125317;28;20201;-83